This is the latest recevied weather packets stored in our database for station/object DN9EM-3. If no packets are shown the sender has not sent any weather packets the latest 10 day(s).
| Time | Temp. | Humidity | Pressure | Rain* | Wind** | Luminosity | Snow |
|---|---|---|---|---|---|---|---|
| 1788160874 | 21.11° C | 71% | 1009.7 hPa | 0 mm | - | - | - |
| 1788160266 | 20.56° C | 75% | 1009.7 hPa | 0 mm | - | - | - |
| 1788159663 | 18.89° C | 79% | 1009.8 hPa | 0 mm | - | - | - |
| 1788159061 | 17.78° C | 84% | 1009.9 hPa | 0 mm | - | - | - |
| 1788158452 | 17.78° C | 84% | 1009.8 hPa | 0 mm | - | - | - |
| 1788157850 | 17.78° C | 83% | 1009.9 hPa | 0 mm | - | - | - |
| 1788157243 | 17.22° C | 86% | 1009.8 hPa | 0 mm | - | - | - |
| 1788156639 | 16.67° C | 89% | 1009.8 hPa | 0 mm | - | - | - |
| 1788156037 | 16.11° C | 92% | 1009.8 hPa | 0 mm | - | - | - |
| 1788155433 | 16.11° C | 93% | 1009.7 hPa | 0 mm | - | - | - |
| 1788154826 | 16.11° C | 93% | 1009.9 hPa | 0 mm | - | - | - |
| 1788154218 | 16.11° C | 93% | 1009.9 hPa | 0 mm | - | - | - |
| 1788153615 | 16.11° C | 94% | 1009.8 hPa | 0 mm | - | - | - |
| 1788153073 | 15.56° C | 94% | 1009.9 hPa | 0 mm | - | - | - |
| 1788152464 | 15.56° C | 94% | 1009.7 hPa | 0 mm | - | - | - |
| 1788151862 | 15.56° C | 94% | 1009.7 hPa | 0 mm | - | - | - |
| 1788151254 | 15.56° C | 94% | 1009.8 hPa | 0 mm | - | - | - |
| 1788150651 | 15.56° C | 94% | 1009.8 hPa | 0 mm | - | - | - |
| 1788150049 | 15.56° C | 94% | 1010.1 hPa | 0 mm | - | - | - |
| 1788149440 | 15.56° C | 94% | 1010.1 hPa | 0 mm | - | - | - |
| 1788148838 | 15.56° C | 94% | 1010.2 hPa | 0 mm | - | - | - |
| 1788148230 | 15.56° C | 94% | 1010.3 hPa | 0 mm | - | - | - |
| 1788147627 | 15.56° C | 94% | 1010.3 hPa | 0 mm | - | - | - |
| 1788147025 | 15.56° C | 94% | 1010.5 hPa | 0 mm | - | - | - |
| 1788146416 | 15.56° C | 94% | 1010.4 hPa | 0 mm | - | - | - |
* Rain latest hour (hover to see other rain measurements)
** Current wind speed in m/s (hover to see current wind gust speed)